Time;durP1;ratioP1;P1;durP2;ratioP2;P2;SDS_P1;SDS_P2;PMS_P1;PMS_P2;Temp;Humidity;BMP_temperature;BMP_pressure;BME280_temperature;BME280_humidity;BME280_pressure;Samples;Min_cycle;Max_cycle;Signal;HPM_P1;HPM_P2
2023/08/23 00:01:16;;;;;;;72.63;69.05;;;24.50;99.90;;;;;;5031330;28;20398;-80
2023/08/23 00:03:42;;;;;;;89.85;85.00;;;24.40;99.90;;;;;;5031846;28;20029;-79
2023/08/23 00:06:08;;;;;;;94.38;89.65;;;24.30;99.90;;;;;;5031616;28;20402;-78
2023/08/23 00:08:34;;;;;;;65.10;61.60;;;24.10;99.90;;;;;;5031836;28;20029;-80
2023/08/23 00:11:00;;;;;;;70.60;67.00;;;24.10;99.90;;;;;;5031689;28;20382;-79
2023/08/23 00:13:26;;;;;;;100.10;94.82;;;24.10;99.90;;;;;;5030727;28;20037;-78
2023/08/23 00:15:53;;;;;;;105.57;100.20;;;24.10;99.90;;;;;;5031390;28;20053;-79
2023/08/23 00:18:19;;;;;;;117.07;111.30;;;24.00;99.90;;;;;;5031990;28;20049;-79
2023/08/23 00:20:45;;;;;;;139.05;132.13;;;23.90;99.90;;;;;;5031551;28;20025;-79
2023/08/23 00:23:11;;;;;;;152.10;144.43;;;23.90;99.90;;;;;;5031547;28;20026;-80
2023/08/23 00:25:37;;;;;;;135.52;128.45;;;23.90;99.90;;;;;;5031313;28;20459;-79
2023/08/23 00:28:03;;;;;;;155.43;147.35;;;23.90;99.90;;;;;;5031799;28;20037;-78
2023/08/23 00:30:29;;;;;;;139.13;132.10;;;24.00;99.90;;;;;;5030847;28;20553;-78
2023/08/23 00:32:55;;;;;;;70.75;66.80;;;23.90;99.90;;;;;;5033490;28;20029;-79
2023/08/23 00:35:21;;;;;;;64.82;61.17;;;23.90;99.90;;;;;;5033735;28;20045;-78
2023/08/23 00:37:47;;;;;;;61.30;58.20;;;23.80;99.90;;;;;;5034827;28;20026;-79
2023/08/23 00:40:14;;;;;;;63.08;59.70;;;23.80;99.90;;;;;;5034727;28;20045;-79
2023/08/23 00:42:40;;;;;;;70.63;66.60;;;23.80;99.90;;;;;;5035116;28;20034;-80
2023/08/23 00:45:06;;;;;;;80.90;76.80;;;23.70;99.90;;;;;;5034468;28;20029;-79
2023/08/23 00:47:33;;;;;;;153.02;145.32;;;23.60;99.90;;;;;;5034691;28;20041;-78
2023/08/23 00:49:59;;;;;;;67.38;63.55;;;23.50;99.90;;;;;;5033610;28;20022;-79
2023/08/23 00:52:26;;;;;;;63.35;59.60;;;23.40;99.90;;;;;;5032641;28;20052;-78
2023/08/23 00:54:54;;;;;;;52.22;49.30;;;23.50;99.90;;;;;;5034667;28;20037;-79
2023/08/23 00:57:20;;;;;;;64.68;61.30;;;23.40;99.90;;;;;;5033475;28;20383;-79
2023/08/23 00:59:46;;;;;;;62.22;58.78;;;23.30;99.90;;;;;;5033665;28;20033;-79
2023/08/23 01:02:13;;;;;;;110.28;104.43;;;23.30;99.90;;;;;;5032847;28;20499;-79
2023/08/23 01:04:39;;;;;;;71.00;67.40;;;23.40;99.90;;;;;;5034702;28;20033;-79
2023/08/23 01:07:16;;;;;;;85.07;80.60;;;23.40;99.90;;;;;;5033938;28;20051;-79
2023/08/23 01:09:54;;;;;;;86.10;81.80;;;23.30;99.90;;;;;;5034925;28;20037;-78
2023/08/23 01:12:55;;;;;;;147.27;139.68;;;23.40;99.90;;;;;;5034365;28;20038;-79
2023/08/23 01:15:21;;;;;;;89.60;85.03;;;23.30;99.90;;;;;;5031719;28;20045;-77
2023/08/23 01:17:48;;;;;;;70.00;66.32;;;23.20;99.90;;;;;;5032955;28;20517;-78
2023/08/23 01:20:14;;;;;;;85.45;81.03;;;23.30;99.90;;;;;;5032569;28;20029;-76
2023/08/23 01:22:51;;;;;;;65.90;62.65;;;23.20;99.90;;;;;;5033110;28;20044;-79
2023/08/23 01:25:17;;;;;;;77.75;73.78;;;23.20;99.90;;;;;;5033137;28;20033;-79
2023/08/23 01:27:43;;;;;;;77.15;73.28;;;23.10;99.90;;;;;;5033958;28;20041;-79
2023/08/23 01:30:10;;;;;;;89.65;84.72;;;23.10;99.90;;;;;;5033733;28;20037;-77
2023/08/23 01:32:56;;;;;;;57.42;54.15;;;23.10;99.90;;;;;;5031354;28;20025;-79
2023/08/23 01:35:32;;;;;;;54.50;51.38;;;22.90;99.90;;;;;;5033531;28;20375;-76
2023/08/23 01:37:59;;;;;;;53.58;50.67;;;23.10;99.90;;;;;;5032849;28;20034;-78
2023/08/23 01:40:25;;;;;;;62.03;58.92;;;23.10;99.90;;;;;;5032501;28;20032;-79
2023/08/23 01:42:51;;;;;;;69.30;65.50;;;23.10;99.90;;;;;;5032295;28;20036;-77
2023/08/23 01:45:17;;;;;;;58.25;55.10;;;23.00;99.90;;;;;;5032124;28;20034;-78
2023/08/23 01:47:43;;;;;;;67.30;63.72;;;23.00;99.90;;;;;;5034044;28;20048;-79
2023/08/23 01:50:09;;;;;;;52.35;49.38;;;22.90;99.90;;;;;;5033113;28;20026;-78
2023/08/23 01:52:35;;;;;;;59.92;56.90;;;22.90;99.90;;;;;;5013889;28;20058;-78
2023/08/23 01:55:01;;;;;;;53.63;50.83;;;22.90;99.90;;;;;;5014431;28;20379;-79
2023/08/23 01:57:27;;;;;;;72.85;69.10;;;22.90;99.90;;;;;;5031830;28;20366;-78
2023/08/23 01:59:56;;;;;;;66.45;62.80;;;22.90;99.90;;;;;;5029803;28;20022;-79
2023/08/23 02:02:22;;;;;;;69.95;66.00;;;23.00;99.90;;;;;;5025516;28;20480;-79
2023/08/23 02:04:48;;;;;;;72.47;68.97;;;23.00;99.90;;;;;;5031647;28;20383;-79
2023/08/23 02:07:15;;;;;;;118.90;112.75;;;23.00;99.90;;;;;;5031089;28;20063;-78
2023/08/23 02:09:41;;;;;;;81.97;77.68;;;22.90;99.90;;;;;;5031855;28;20026;-79
2023/08/23 02:12:07;;;;;;;121.55;115.50;;;22.90;99.90;;;;;;5031411;28;20560;-79
2023/08/23 02:14:33;;;;;;;127.35;121.05;;;22.80;99.90;;;;;;5031991;28;20041;-78
2023/08/23 02:16:59;;;;;;;93.28;88.43;;;22.70;99.90;;;;;;5030953;28;20487;-79
2023/08/23 02:19:25;;;;;;;73.07;69.25;;;22.70;99.90;;;;;;5031254;28;20030;-79
2023/08/23 02:21:51;;;;;;;82.03;77.72;;;22.70;99.90;;;;;;5031566;28;20045;-78
2023/08/23 02:24:17;;;;;;;61.53;58.25;;;22.70;99.90;;;;;;5031462;28;20045;-79
2023/08/23 02:26:44;;;;;;;72.05;68.13;;;22.70;99.90;;;;;;5031285;28;20049;-79
2023/08/23 02:29:10;;;;;;;76.10;72.13;;;22.80;99.90;;;;;;5031491;28;20026;-79
2023/08/23 02:31:36;;;;;;;72.95;69.03;;;22.80;99.90;;;;;;5030630;28;20045;-79
2023/08/23 02:34:02;;;;;;;66.70;63.30;;;22.70;99.90;;;;;;5031079;28;20375;-80
2023/08/23 02:36:28;;;;;;;85.47;80.95;;;22.70;99.90;;;;;;5031433;28;20028;-79
2023/08/23 02:38:55;;;;;;;83.50;79.38;;;22.70;99.90;;;;;;5032795;28;20379;-79
2023/08/23 02:41:21;;;;;;;84.90;80.72;;;22.60;99.90;;;;;;5032771;28;20030;-79
2023/08/23 02:43:47;;;;;;;82.32;78.22;;;22.50;99.90;;;;;;5032947;28;20041;-80
2023/08/23 02:46:13;;;;;;;95.05;90.13;;;22.40;99.90;;;;;;5032260;28;20041;-79
2023/08/23 02:48:39;;;;;;;75.13;70.95;;;22.40;99.90;;;;;;5032710;28;20037;-79
2023/08/23 02:51:06;;;;;;;71.88;67.95;;;22.40;99.90;;;;;;5032281;28;20040;-79
2023/08/23 02:53:32;;;;;;;55.60;52.47;;;22.40;99.90;;;;;;5032586;28;20049;-78
2023/08/23 02:55:58;;;;;;;86.55;82.13;;;22.40;99.90;;;;;;5031432;28;20034;-79
2023/08/23 02:58:25;;;;;;;73.10;69.35;;;22.50;99.90;;;;;;5032624;28;20383;-79
2023/08/23 03:00:51;;;;;;;79.10;75.00;;;22.60;99.90;;;;;;5031649;28;20041;-79
2023/08/23 03:03:17;;;;;;;82.13;78.10;;;22.50;99.90;;;;;;5032233;28;20033;-79
2023/08/23 03:05:56;;;;;;;97.35;92.45;;;22.40;99.90;;;;;;5032203;28;20040;-79
2023/08/23 03:08:23;;;;;;;68.07;64.65;;;22.40;99.90;;;;;;5032423;28;20042;-79
2023/08/23 03:10:49;;;;;;;75.40;71.65;;;22.40;99.90;;;;;;5032296;28;20484;-80
2023/08/23 03:13:15;;;;;;;77.65;73.75;;;22.40;99.90;;;;;;5032670;28;20367;-79
2023/08/23 03:15:42;;;;;;;55.00;51.90;;;22.30;99.90;;;;;;5031689;28;20041;-79
2023/08/23 03:18:08;;;;;;;56.80;53.83;;;22.30;99.90;;;;;;5032519;28;20037;-77
2023/08/23 03:20:34;;;;;;;58.88;55.72;;;22.30;99.90;;;;;;5032190;28;20030;-79
2023/08/23 03:23:00;;;;;;;48.50;45.80;;;22.30;99.90;;;;;;5032477;28;20033;-79
2023/08/23 03:25:26;;;;;;;42.30;39.80;;;22.20;99.90;;;;;;5031942;28;20022;-79
2023/08/23 03:27:52;;;;;;;52.00;49.13;;;22.20;99.90;;;;;;5032450;28;20045;-79
2023/08/23 03:30:19;;;;;;;57.42;54.30;;;22.20;99.90;;;;;;5031832;28;20033;-79
2023/08/23 03:32:45;;;;;;;49.17;46.50;;;22.20;99.90;;;;;;5031718;28;20033;-79
2023/08/23 03:35:11;;;;;;;55.63;52.40;;;22.00;99.90;;;;;;5031999;28;20037;-79
2023/08/23 03:37:37;;;;;;;58.20;55.20;;;21.90;99.90;;;;;;5030942;28;20029;-80
2023/08/23 03:40:03;;;;;;;60.15;56.75;;;21.90;99.90;;;;;;5032622;28;20030;-79
2023/08/23 03:42:29;;;;;;;65.38;61.88;;;22.00;99.90;;;;;;5031814;28;20048;-78
2023/08/23 03:44:56;;;;;;;54.20;51.33;;;22.10;99.90;;;;;;5032126;28;20021;-79
2023/08/23 03:47:22;;;;;;;49.22;46.50;;;22.00;99.90;;;;;;5031262;28;20048;-79
2023/08/23 03:49:48;;;;;;;48.53;45.88;;;22.00;99.90;;;;;;5032014;28;20026;-79
2023/08/23 03:52:15;;;;;;;46.80;44.22;;;21.80;99.90;;;;;;5031911;28;20072;-78
2023/08/23 03:54:41;;;;;;;51.05;48.05;;;21.90;99.90;;;;;;5032156;28;20029;-80
2023/08/23 03:57:07;;;;;;;52.55;49.75;;;21.90;99.90;;;;;;5030080;28;20037;-78
2023/08/23 03:59:34;;;;;;;58.47;55.30;;;21.90;99.90;;;;;;5032196;28;20382;-79
2023/08/23 04:02:00;;;;;;;68.22;64.85;;;21.90;99.90;;;;;;5031056;28;20037;-79
2023/08/23 04:04:26;;;;;;;55.00;52.15;;;21.90;99.90;;;;;;5031944;28;20060;-78
2023/08/23 04:06:52;;;;;;;57.65;54.67;;;22.00;99.90;;;;;;5033257;28;20041;-79
2023/08/23 04:09:18;;;;;;;44.88;42.50;;;21.80;99.90;;;;;;5035794;28;20060;-79
2023/08/23 04:11:44;;;;;;;47.42;44.92;;;21.60;99.90;;;;;;5035831;28;20406;-79
2023/08/23 04:14:10;;;;;;;46.40;43.78;;;21.50;99.90;;;;;;5035750;28;20029;-79
2023/08/23 04:16:36;;;;;;;48.17;45.63;;;21.40;99.90;;;;;;5034887;28;20046;-79
2023/08/23 04:19:02;;;;;;;53.67;50.63;;;21.30;99.90;;;;;;5035860;28;20042;-80
2023/08/23 04:21:29;;;;;;;68.15;64.70;;;21.30;99.90;;;;;;5035081;28;20041;-79
2023/08/23 04:23:55;;;;;;;56.15;53.22;;;21.60;99.90;;;;;;5035776;28;20501;-80
2023/08/23 04:26:21;;;;;;;56.85;53.67;;;21.60;99.90;;;;;;5035062;28;20033;-79
2023/08/23 04:28:47;;;;;;;51.58;48.95;;;21.60;99.90;;;;;;5035118;28;20395;-80
2023/08/23 04:31:13;;;;;;;42.53;40.33;;;21.60;99.90;;;;;;5034674;28;20034;-80
2023/08/23 04:33:40;;;;;;;40.90;38.50;;;21.50;99.90;;;;;;5035233;28;20045;-79
2023/08/23 04:36:06;;;;;;;41.88;39.67;;;21.40;99.90;;;;;;5034872;28;20037;-78
2023/08/23 04:38:32;;;;;;;43.67;41.22;;;21.40;99.90;;;;;;5035074;28;20499;-79
2023/08/23 04:41:05;;;;;;;41.75;39.40;;;21.40;99.90;;;;;;5034738;28;20044;-79
2023/08/23 04:43:31;;;;;;;40.22;38.08;;;21.30;99.90;;;;;;5034732;28;20029;-79
2023/08/23 04:45:58;;;;;;;40.15;38.05;;;21.30;99.90;;;;;;5034379;28;20038;-80
2023/08/23 04:48:26;;;;;;;41.72;39.35;;;21.40;99.90;;;;;;5034987;28;20036;-79
2023/08/23 04:50:56;;;;;;;40.08;37.65;;;21.30;99.90;;;;;;5035181;28;20283;-80
2023/08/23 04:53:23;;;;;;;38.10;35.92;;;21.30;99.90;;;;;;5034340;28;20057;-79
2023/08/23 04:55:49;;;;;;;41.05;38.50;;;21.30;99.90;;;;;;5034455;28;20026;-80
2023/08/23 04:58:16;;;;;;;39.70;37.45;;;21.30;99.90;;;;;;5034518;28;20033;-80
2023/08/23 05:00:45;;;;;;;45.95;43.33;;;21.30;99.90;;;;;;5033965;28;20052;-80
2023/08/23 05:03:11;;;;;;;40.92;38.72;;;21.40;99.90;;;;;;5034767;28;20048;-79
2023/08/23 05:05:37;;;;;;;45.10;42.58;;;21.40;99.90;;;;;;5034514;28;20048;-80
2023/08/23 05:08:04;;;;;;;39.60;37.45;;;21.40;99.90;;;;;;5034325;28;20037;-80
2023/08/23 05:10:30;;;;;;;41.50;39.22;;;21.40;99.90;;;;;;5034378;28;20050;-79
2023/08/23 05:12:58;;;;;;;46.42;43.72;;;21.30;99.90;;;;;;5034235;28;20036;-80
2023/08/23 05:15:24;;;;;;;44.95;42.42;;;21.40;99.90;;;;;;5033941;28;20034;-79
2023/08/23 05:17:52;;;;;;;42.20;39.83;;;21.40;99.90;;;;;;5033566;28;20044;-79
2023/08/23 05:20:18;;;;;;;43.22;40.83;;;21.30;99.90;;;;;;5034033;28;20068;-80
2023/08/23 05:22:44;;;;;;;43.55;41.25;;;21.30;99.90;;;;;;5034557;28;20042;-79
2023/08/23 05:25:10;;;;;;;52.80;50.00;;;21.20;99.90;;;;;;5033460;28;20044;-80
2023/08/23 05:27:36;;;;;;;43.83;41.33;;;21.20;99.90;;;;;;5033759;28;20041;-80
2023/08/23 05:30:03;;;;;;;42.67;40.28;;;21.20;99.90;;;;;;5034254;28;20040;-80
2023/08/23 05:32:30;;;;;;;38.80;36.47;;;21.30;99.90;;;;;;5013074;28;20491;-80
2023/08/23 05:34:56;;;;;;;50.67;47.83;;;21.30;99.90;;;;;;5015001;28;20029;-78
2023/08/23 05:37:22;;;;;;;56.38;53.25;;;21.30;99.90;;;;;;5013997;28;20030;-79
2023/08/23 05:39:48;;;;;;;49.33;46.60;;;21.30;99.90;;;;;;5014359;28;20045;-79
2023/08/23 05:42:14;;;;;;;47.25;44.72;;;21.40;99.90;;;;;;5013703;28;20030;-84
2023/08/23 05:44:40;;;;;;;48.40;45.92;;;21.30;99.90;;;;;;5014308;28;20029;-83
2023/08/23 05:47:06;;;;;;;52.28;49.20;;;21.40;99.90;;;;;;5013361;28;20054;-84
2023/08/23 05:49:32;;;;;;;46.90;44.47;;;21.30;99.90;;;;;;5014033;28;20490;-84
2023/08/23 05:51:59;;;;;;;63.28;60.00;;;21.30;99.90;;;;;;5013818;28;20042;-82
2023/08/23 05:54:25;;;;;;;67.45;63.97;;;21.50;99.90;;;;;;5014053;28;20486;-86
2023/08/23 05:56:51;;;;;;;87.55;82.97;;;21.50;99.90;;;;;;5013401;28;20038;-85
2023/08/23 05:59:17;;;;;;;87.70;82.97;;;21.40;99.90;;;;;;5013901;28;20022;-83
2023/08/23 06:01:43;;;;;;;109.18;103.75;;;21.50;99.90;;;;;;5012095;28;20046;-85
2023/08/23 06:04:09;;;;;;;111.35;105.47;;;21.50;99.90;;;;;;5013904;28;20033;-84
2023/08/23 06:06:35;;;;;;;93.20;88.28;;;21.60;99.90;;;;;;5013623;28;20038;-83
2023/08/23 06:09:01;;;;;;;161.45;153.25;;;21.70;99.90;;;;;;5013970;28;20061;-84
2023/08/23 06:11:27;;;;;;;167.60;159.00;;;21.80;99.90;;;;;;5013199;28;20029;-85
2023/08/23 06:13:55;;;;;;;123.78;117.72;;;21.70;99.90;;;;;;5013697;28;20049;-83
2023/08/23 06:16:21;;;;;;;183.20;173.77;;;21.80;99.90;;;;;;5023919;28;20029;-86
2023/08/23 06:18:47;;;;;;;277.15;261.35;;;21.90;99.90;;;;;;5033380;28;20033;-83
2023/08/23 06:21:13;;;;;;;117.88;111.68;;;21.90;99.90;;;;;;5032990;28;20033;-84
2023/08/23 06:23:43;;;;;;;79.75;75.43;;;21.90;99.90;;;;;;5033346;28;20021;-84
2023/08/23 06:26:09;;;;;;;88.20;83.75;;;22.00;99.90;;;;;;5032670;28;20059;-85
2023/08/23 06:28:36;;;;;;;68.68;65.07;;;22.10;99.90;;;;;;5033151;28;20037;-82
2023/08/23 06:31:02;;;;;;;72.38;68.60;;;22.20;99.90;;;;;;5032249;28;20057;-85
2023/08/23 06:33:28;;;;;;;93.18;88.22;;;22.50;99.90;;;;;;5033240;28;20029;-84
2023/08/23 06:35:54;;;;;;;68.57;64.90;;;22.70;99.90;;;;;;5032835;28;20025;-86
2023/08/23 06:38:20;;;;;;;64.68;60.97;;;22.90;99.90;;;;;;5032890;28;20037;-84
2023/08/23 06:40:46;;;;;;;96.20;91.18;;;23.00;99.90;;;;;;5032380;28;20394;-83
2023/08/23 06:43:17;;;;;;;112.25;106.55;;;22.90;99.90;;;;;;5033050;28;20025;-84
2023/08/23 06:45:43;;;;;;;98.78;93.65;;;23.00;99.90;;;;;;5032218;28;20483;-85
2023/08/23 06:48:09;;;;;;;88.13;83.53;;;22.90;99.90;;;;;;5032901;28;20053;-86
2023/08/23 06:50:35;;;;;;;88.05;83.40;;;22.90;99.90;;;;;;5032444;28;20463;-82
2023/08/23 06:53:01;;;;;;;81.65;77.28;;;22.90;99.90;;;;;;5032724;28;20584;-85
2023/08/23 06:55:28;;;;;;;75.25;71.35;;;22.80;99.90;;;;;;5032637;28;20033;-85
2023/08/23 06:57:54;;;;;;;74.82;70.60;;;22.80;99.90;;;;;;5032708;28;20036;-84
2023/08/23 07:00:20;;;;;;;71.93;68.30;;;23.00;99.90;;;;;;5031795;28;20033;-84
2023/08/23 07:02:48;;;;;;;74.47;70.68;;;23.00;99.90;;;;;;5032765;28;20024;-81
2023/08/23 07:05:14;;;;;;;66.55;62.95;;;22.90;99.90;;;;;;5032284;28;20398;-84
2023/08/23 07:07:40;;;;;;;66.07;62.60;;;23.00;99.90;;;;;;5032541;28;20037;-81
2023/08/23 07:10:06;;;;;;;88.57;83.85;;;23.20;99.90;;;;;;5032297;28;20028;-83
2023/08/23 07:12:32;;;;;;;74.32;70.57;;;23.30;99.90;;;;;;5032418;28;20033;-83
2023/08/23 07:14:59;;;;;;;71.00;67.05;;;23.40;99.90;;;;;;5031445;28;20040;-82
2023/08/23 07:17:25;;;;;;;65.53;62.17;;;23.50;99.90;;;;;;5031900;28;20029;-84
2023/08/23 07:19:51;;;;;;;64.65;61.33;;;23.40;99.90;;;;;;5032456;28;20036;-86
2023/08/23 07:22:17;;;;;;;77.35;72.90;;;23.40;99.90;;;;;;5032232;28;20040;-81
2023/08/23 07:24:43;;;;;;;100.10;94.80;;;23.40;99.90;;;;;;5032145;28;20462;-83
2023/08/23 07:27:09;;;;;;;84.90;80.55;;;23.60;99.90;;;;;;5032010;28;20033;-85
2023/08/23 07:29:36;;;;;;;81.82;77.50;;;23.60;99.90;;;;;;5030885;28;20046;-84
2023/08/23 07:32:06;;;;;;;115.20;108.97;;;23.60;99.90;;;;;;5030520;28;20040;-85
2023/08/23 07:34:33;;;;;;;123.70;117.35;;;23.40;99.90;;;;;;5033213;28;20394;-85
2023/08/23 07:36:59;;;;;;;124.45;118.03;;;23.40;99.90;;;;;;5032221;28;20028;-83
2023/08/23 07:39:27;;;;;;;119.60;113.63;;;23.40;99.90;;;;;;5032061;28;20029;-84
2023/08/23 07:41:54;;;;;;;84.40;79.88;;;23.40;99.90;;;;;;5034178;28;20052;-82
2023/08/23 07:44:20;;;;;;;87.03;82.53;;;23.30;99.90;;;;;;5036171;28;20037;-84
2023/08/23 07:46:46;;;;;;;97.43;92.53;;;23.30;99.90;;;;;;5035681;28;20037;-83
2023/08/23 07:49:15;;;;;;;129.63;123.28;;;23.40;99.90;;;;;;5036093;28;20037;-82
2023/08/23 07:51:42;;;;;;;142.32;135.25;;;23.50;99.90;;;;;;5035536;28;20034;-84
2023/08/23 07:54:08;;;;;;;185.43;175.65;;;23.40;99.90;;;;;;5036443;28;20040;-85
2023/08/23 07:56:34;;;;;;;86.28;81.82;;;23.60;99.90;;;;;;5034770;28;20384;-85
2023/08/23 07:59:01;;;;;;;80.35;76.43;;;23.80;99.90;;;;;;5036053;28;20052;-84
2023/08/23 08:01:27;;;;;;;87.43;82.85;;;23.90;99.90;;;;;;5035139;28;20033;-85
2023/08/23 08:03:53;;;;;;;124.90;118.45;;;24.00;99.90;;;;;;5035983;28;20029;-81
2023/08/23 08:06:19;;;;;;;163.88;155.52;;;24.20;99.90;;;;;;5035316;28;20048;-84
2023/08/23 08:08:45;;;;;;;131.10;124.55;;;24.40;99.90;;;;;;5035577;28;20044;-85
2023/08/23 08:11:11;;;;;;;106.47;101.05;;;24.60;99.90;;;;;;5035601;28;20390;-83
2023/08/23 08:13:38;;;;;;;99.95;95.05;;;24.70;99.90;;;;;;5034581;28;20041;-84
2023/08/23 08:16:11;;;;;;;102.32;97.22;;;24.70;99.90;;;;;;5035104;28;20038;-84
2023/08/23 08:18:38;;;;;;;112.78;107.07;;;24.60;99.90;;;;;;5035623;28;20033;-84
2023/08/23 08:21:04;;;;;;;128.15;121.22;;;24.60;99.90;;;;;;5035058;28;20029;-86
2023/08/23 08:23:30;;;;;;;117.32;111.45;;;24.70;99.90;;;;;;5035513;28;20042;-83
2023/08/23 08:25:56;;;;;;;113.40;107.57;;;25.00;99.90;;;;;;5035197;28;20037;-86
2023/08/23 08:28:23;;;;;;;129.60;123.22;;;25.20;99.90;;;;;;5035498;28;20056;-86
2023/08/23 08:30:49;;;;;;;136.48;129.57;;;25.40;99.90;;;;;;5034739;28;20494;-85
2023/08/23 08:33:16;;;;;;;128.65;122.28;;;25.60;99.90;;;;;;5034266;28;20038;-86
2023/08/23 08:35:43;;;;;;;132.13;125.32;;;25.70;99.90;;;;;;5033289;28;20490;-84
2023/08/23 08:38:09;;;;;;;136.75;129.32;;;25.80;99.90;;;;;;5035273;28;20030;-83
2023/08/23 08:40:36;;;;;;;129.25;122.53;;;25.90;99.90;;;;;;5035540;28;20483;-85
2023/08/23 08:43:03;;;;;;;138.75;131.82;;;26.00;99.90;;;;;;5034990;28;20547;-84
2023/08/23 08:45:29;;;;;;;140.57;133.57;;;26.10;99.90;;;;;;5034541;28;20410;-84
2023/08/23 08:47:55;;;;;;;133.35;126.53;;;26.20;99.90;;;;;;5033941;28;20041;-85
2023/08/23 08:50:21;;;;;;;153.13;145.52;;;26.30;99.90;;;;;;5034292;28;20045;-84
2023/08/23 08:52:51;;;;;;;121.80;115.55;;;26.40;99.90;;;;;;5032515;28;20038;-83
2023/08/23 08:55:21;;;;;;;116.75;110.90;;;26.50;99.90;;;;;;5034949;28;20033;-83
2023/08/23 08:57:49;;;;;;;141.50;134.37;;;26.50;99.90;;;;;;5034898;28;20037;-84
2023/08/23 09:00:15;;;;;;;116.38;110.60;;;26.60;99.90;;;;;;5034277;28;20268;-85
2023/08/23 09:02:42;;;;;;;130.57;123.85;;;26.60;99.90;;;;;;5033699;28;20088;-83
2023/08/23 09:05:08;;;;;;;129.43;123.15;;;26.80;99.90;;;;;;5033289;28;20042;-85
2023/08/23 09:07:35;;;;;;;131.65;125.15;;;26.90;99.90;;;;;;5033254;28;20038;-85
2023/08/23 09:10:02;;;;;;;139.50;132.30;;;27.10;99.90;;;;;;5033321;28;20402;-86
2023/08/23 09:12:28;;;;;;;135.88;129.13;;;27.10;99.90;;;;;;5034283;28;20482;-85
2023/08/23 09:14:54;;;;;;;144.55;137.27;;;27.20;99.90;;;;;;5034543;28;20041;-84
2023/08/23 09:17:22;;;;;;;165.75;157.35;;;27.40;99.90;;;;;;5033878;28;20041;-85
2023/08/23 09:19:49;;;;;;;161.95;153.88;;;27.50;99.90;;;;;;5034004;28;20038;-85
2023/08/23 09:22:21;;;;;;;173.10;164.52;;;27.70;99.90;;;;;;5034321;28;20045;-85
2023/08/23 09:24:47;;;;;;;183.90;174.85;;;27.80;99.90;;;;;;5034347;28;20026;-81
2023/08/23 09:27:13;;;;;;;255.20;243.05;;;28.20;99.90;;;;;;5034140;28;20033;-84
2023/08/23 09:29:39;;;;;;;266.02;253.43;;;28.20;99.90;;;;;;5032692;28;20060;-84
2023/08/23 09:32:06;;;;;;;246.40;234.15;;;28.10;99.90;;;;;;5032346;28;20487;-81
2023/08/23 09:34:32;;;;;;;260.45;247.98;;;28.20;99.90;;;;;;5033889;28;20481;-83
2023/08/23 09:37:07;;;;;;;270.00;257.10;;;28.10;99.90;;;;;;5033862;28;20026;-86
2023/08/23 09:39:34;;;;;;;260.05;247.65;;;28.00;99.90;;;;;;5034259;28;20521;-84
2023/08/23 09:42:05;;;;;;;280.23;266.77;;;28.00;99.90;;;;;;5033583;28;20049;-84
2023/08/23 09:44:40;;;;;;;282.67;269.05;;;28.10;99.90;;;;;;5026596;28;20037;-80
2023/08/23 09:47:18;;;;;;;263.88;251.25;;;28.20;99.90;;;;;;5029789;28;20030;-81
2023/08/23 09:49:44;;;;;;;261.83;249.32;;;28.10;99.90;;;;;;5033116;28;20478;-81
2023/08/23 09:52:13;;;;;;;273.27;260.20;;;28.20;99.90;;;;;;5033241;28;20041;-79
2023/08/23 09:55:00;;;;;;;253.32;241.50;;;28.30;99.90;;;;;;5033671;28;20040;-80
2023/08/23 09:57:26;;;;;;;273.95;260.80;;;28.40;99.90;;;;;;5032206;28;20028;-80
2023/08/23 09:59:52;;;;;;;275.92;262.92;;;28.40;99.90;;;;;;5015876;28;20026;-80
2023/08/23 10:02:18;;;;;;;283.70;270.05;;;28.30;99.90;;;;;;5014623;28;20033;-80
2023/08/23 10:04:44;;;;;;;311.05;296.15;;;28.40;99.90;;;;;;5031921;28;20059;-78
2023/08/23 10:07:13;;;;;;;313.08;297.85;;;28.50;99.90;;;;;;5033112;28;20029;-78
2023/08/23 10:09:40;;;;;;;287.38;273.63;;;28.50;99.90;;;;;;5033078;28;20053;-78
2023/08/23 10:12:06;;;;;;;294.23;280.08;;;28.40;99.90;;;;;;5031750;28;20395;-78
2023/08/23 10:14:34;;;;;;;309.50;294.73;;;28.40;99.90;;;;;;5031998;28;20395;-79
2023/08/23 10:17:02;;;;;;;304.33;289.42;;;28.40;99.90;;;;;;5030791;28;20054;-77
2023/08/23 10:19:28;;;;;;;333.10;316.98;;;28.40;99.90;;;;;;5015644;28;20402;-78
2023/08/23 10:21:55;;;;;;;325.65;309.85;;;28.50;99.90;;;;;;5031640;28;20386;-78
2023/08/23 10:24:33;;;;;;;364.23;346.13;;;28.70;99.90;;;;;;5033076;28;20041;-78
2023/08/23 10:27:06;;;;;;;333.73;317.55;;;28.80;99.90;;;;;;5032713;28;20044;-77
2023/08/23 10:29:36;;;;;;;370.00;352.13;;;28.80;99.90;;;;;;5033179;28;20052;-78
2023/08/23 10:32:10;;;;;;;382.67;364.17;;;28.70;99.90;;;;;;5031945;28;20041;-78
2023/08/23 10:34:38;;;;;;;381.30;362.60;;;28.90;99.90;;;;;;5032886;28;20637;-78
2023/08/23 10:37:17;;;;;;;378.67;360.23;;;29.00;99.90;;;;;;5032654;28;20044;-79
2023/08/23 10:39:48;;;;;;;385.40;366.42;;;29.10;99.90;;;;;;5032713;28;20387;-77
2023/08/23 10:42:15;;;;;;;382.20;363.23;;;29.20;99.90;;;;;;5032613;28;20045;-77
2023/08/23 10:44:57;;;;;;;424.45;403.48;;;29.20;99.90;;;;;;5032772;28;20024;-76
2023/08/23 10:47:23;;;;;;;401.90;381.90;;;29.30;99.90;;;;;;5030668;28;20033;-78
2023/08/23 10:49:50;;;;;;;402.33;382.25;;;29.30;99.90;;;;;;5032408;28;20386;-78
2023/08/23 10:52:16;;;;;;;416.38;396.13;;;29.20;99.90;;;;;;5032272;28;20041;-78
2023/08/23 10:54:42;;;;;;;410.77;390.58;;;29.20;99.90;;;;;;5032928;28;20048;-78
2023/08/23 10:57:09;;;;;;;381.92;363.13;;;29.20;99.90;;;;;;5032273;28;20033;-79
2023/08/23 10:59:35;;;;;;;401.73;382.08;;;29.30;99.90;;;;;;5032417;28;20033;-78
2023/08/23 11:02:02;;;;;;;420.10;399.52;;;29.40;99.90;;;;;;5030556;28;20045;-76
2023/08/23 11:04:28;;;;;;;405.55;385.27;;;29.30;99.90;;;;;;5032281;28;20037;-78
2023/08/23 11:06:54;;;;;;;408.05;387.85;;;29.40;99.90;;;;;;5032060;28;20040;-78
2023/08/23 11:09:20;;;;;;;399.40;379.77;;;29.50;99.90;;;;;;5031033;28;20057;-79
2023/08/23 11:11:46;;;;;;;401.90;382.33;;;29.60;99.90;;;;;;5031898;28;20585;-79
2023/08/23 11:14:12;;;;;;;423.70;403.13;;;29.70;99.90;;;;;;5032551;28;20566;-78
2023/08/23 11:16:38;;;;;;;408.05;388.17;;;29.80;99.90;;;;;;5030677;28;20029;-78
2023/08/23 11:19:06;;;;;;;400.95;380.92;;;29.80;99.90;;;;;;5030955;28;20033;-79
2023/08/23 11:21:32;;;;;;;425.27;404.20;;;29.80;99.90;;;;;;5032142;28;20030;-77
2023/08/23 11:24:05;;;;;;;413.48;393.15;;;30.00;99.90;;;;;;5032319;28;20089;-78
2023/08/23 11:26:35;;;;;;;412.58;392.23;;;30.10;99.90;;;;;;5031821;28;20044;-78
2023/08/23 11:29:02;;;;;;;422.85;401.85;;;30.10;99.90;;;;;;5032180;28;20067;-78
2023/08/23 11:31:29;;;;;;;408.63;388.27;;;30.10;99.90;;;;;;5031439;28;20033;-79
2023/08/23 11:33:59;;;;;;;390.67;371.88;;;30.20;99.90;;;;;;5031460;28;20037;-79
2023/08/23 11:36:27;;;;;;;399.13;379.58;;;30.10;99.90;;;;;;5032006;28;20053;-79
2023/08/23 11:38:53;;;;;;;405.58;385.73;;;30.10;99.90;;;;;;5030670;28;20414;-79
2023/08/23 11:41:29;;;;;;;404.92;385.30;;;30.20;99.90;;;;;;5032006;28;20021;-79
2023/08/23 11:43:55;;;;;;;442.33;420.10;;;30.30;99.90;;;;;;5030350;28;20038;-79
2023/08/23 11:46:21;;;;;;;471.33;447.50;;;30.40;99.90;;;;;;5031183;28;20037;-79
2023/08/23 11:48:47;;;;;;;471.92;448.05;;;30.60;99.90;;;;;;5031917;28;20048;-78
2023/08/23 11:51:13;;;;;;;474.00;449.75;;;30.70;99.90;;;;;;5031557;28;20036;-79
2023/08/23 11:53:54;;;;;;;465.75;442.10;;;30.70;99.90;;;;;;5032034;28;20482;-78
2023/08/23 11:56:21;;;;;;;462.52;439.50;;;30.70;99.90;;;;;;5031692;28;20037;-79
2023/08/23 11:58:47;;;;;;;463.67;440.45;;;30.80;99.90;;;;;;5031342;28;20506;-78
2023/08/23 12:01:13;;;;;;;447.02;424.73;;;30.70;99.90;;;;;;5031110;28;20042;-79
2023/08/23 12:03:39;;;;;;;419.85;399.08;;;30.80;99.90;;;;;;5031839;28;20493;-78
2023/08/23 12:06:05;;;;;;;420.77;399.88;;;31.00;99.90;;;;;;5031719;28;20033;-79
2023/08/23 12:08:33;;;;;;;414.65;394.15;;;31.00;99.90;;;;;;5031693;28;20485;-78
2023/08/23 12:10:59;;;;;;;391.70;372.10;;;31.00;99.90;;;;;;5031443;28;20029;-79
2023/08/23 12:13:25;;;;;;;421.13;399.38;;;31.10;99.90;;;;;;5031423;28;20151;-78
2023/08/23 12:15:52;;;;;;;418.55;397.25;;;31.10;99.90;;;;;;5031091;28;20063;-79
2023/08/23 12:18:18;;;;;;;409.35;388.50;;;31.10;99.90;;;;;;5031653;28;20030;-78